Time;durP1;ratioP1;P1;durP2;ratioP2;P2;SDS_P1;SDS_P2;PMS_P1;PMS_P2;Temp;Humidity;BMP_temperature;BMP_pressure;BME280_temperature;BME280_humidity;BME280_pressure;Samples;Min_cycle;Max_cycle;Signal;HPM_P1;HPM_P2
2022/06/24 00:01:39;;;;;;;5.40;2.80;;;21.70;98.30;;;;;;4977535;28;20046;-86
2022/06/24 00:04:05;;;;;;;3.28;2.88;;;21.50;98.40;;;;;;4978137;28;20089;-86
2022/06/24 00:06:45;;;;;;;3.38;2.88;;;21.50;98.80;;;;;;4961463;28;20090;-87
2022/06/24 00:09:11;;;;;;;2.95;2.47;;;21.40;98.80;;;;;;4995203;28;20046;-84
2022/06/24 00:11:37;;;;;;;3.78;2.63;;;21.40;98.70;;;;;;4993496;28;20045;-86
2022/06/24 00:14:10;;;;;;;8.05;2.92;;;21.30;98.70;;;;;;4994567;28;20403;-87
2022/06/24 00:16:58;;;;;;;3.20;2.70;;;21.30;99.00;;;;;;4993256;28;20096;-87
2022/06/24 00:19:24;;;;;;;3.05;2.75;;;21.20;99.60;;;;;;4977235;28;20558;-87
2022/06/24 00:22:04;;;;;;;4.35;3.00;;;21.20;99.40;;;;;;4977171;28;20053;-87
2022/06/24 00:24:33;;;;;;;3.22;2.80;;;21.10;99.50;;;;;;4976523;28;20061;-87
2022/06/24 00:26:58;;;;;;;3.15;2.90;;;20.80;99.90;;;;;;4976958;28;20062;-87
2022/06/24 00:29:29;;;;;;;4.93;2.85;;;20.80;99.90;;;;;;4993311;28;20113;-87
2022/06/24 00:32:08;;;;;;;3.20;2.95;;;20.70;99.90;;;;;;4995180;28;20050;-86
2022/06/24 00:34:37;;;;;;;3.40;3.10;;;20.70;99.90;;;;;;4994437;28;20133;-87
2022/06/24 00:37:29;;;;;;;3.50;2.80;;;20.50;99.90;;;;;;4992893;28;20050;-86
2022/06/24 00:39:59;;;;;;;3.30;2.97;;;20.40;99.90;;;;;;4994387;28;20116;-87
2022/06/24 00:42:25;;;;;;;4.63;2.83;;;20.30;99.90;;;;;;4976710;28;20406;-87
2022/06/24 00:45:02;;;;;;;4.32;2.78;;;20.10;99.90;;;;;;4992633;28;20046;-87
2022/06/24 00:47:28;;;;;;;4.22;2.70;;;20.00;99.90;;;;;;4977585;28;20050;-86
2022/06/24 00:49:55;;;;;;;4.82;2.70;;;19.80;99.90;;;;;;4992719;28;20054;-87
2022/06/24 00:52:21;;;;;;;5.13;3.33;;;19.70;99.90;;;;;;4992670;28;20046;-87
2022/06/24 00:54:46;;;;;;;5.60;4.00;;;19.60;99.90;;;;;;4992340;28;20055;-87
2022/06/24 00:57:12;;;;;;;9.70;3.45;;;19.50;99.90;;;;;;4992707;28;20054;-87
2022/06/24 00:59:38;;;;;;;6.13;3.60;;;19.50;99.90;;;;;;4992400;28;20072;-86
2022/06/24 01:02:06;;;;;;;7.93;3.13;;;19.40;99.90;;;;;;4992459;28;20046;-87
2022/06/24 01:04:33;;;;;;;3.65;2.80;;;19.40;99.90;;;;;;4975908;28;20487;-87
2022/06/24 01:06:58;;;;;;;3.97;3.30;;;19.40;99.90;;;;;;4992321;28;20097;-87
2022/06/24 01:09:24;;;;;;;4.40;3.00;;;19.30;99.90;;;;;;4993638;28;20085;-86
2022/06/24 01:11:50;;;;;;;3.95;3.30;;;19.20;99.90;;;;;;4993020;28;20105;-88
2022/06/24 01:14:15;;;;;;;3.65;3.28;;;19.20;99.90;;;;;;4976072;28;20124;-87
2022/06/24 01:16:41;;;;;;;3.53;3.20;;;19.20;99.90;;;;;;4992291;28;20073;-86
2022/06/24 01:19:12;;;;;;;3.65;3.13;;;19.10;99.90;;;;;;4992232;28;20056;-87
2022/06/24 01:21:41;;;;;;;4.25;3.33;;;19.00;99.90;;;;;;4976107;28;20047;-88
2022/06/24 01:24:18;;;;;;;3.10;2.90;;;18.90;99.90;;;;;;4978067;28;20085;-87
2022/06/24 01:26:48;;;;;;;4.05;3.40;;;18.90;99.90;;;;;;4967289;28;20086;-86
2022/06/24 01:29:14;;;;;;;5.40;3.45;;;18.90;99.90;;;;;;4998425;28;20054;-85
2022/06/24 01:31:40;;;;;;;4.18;3.45;;;18.80;99.90;;;;;;4999169;28;20133;-86
2022/06/24 01:34:09;;;;;;;3.63;3.10;;;18.80;99.90;;;;;;4996113;28;20054;-87
2022/06/24 01:36:35;;;;;;;4.88;3.15;;;18.80;99.90;;;;;;4992429;28;20100;-86
2022/06/24 01:39:02;;;;;;;4.10;3.00;;;18.70;99.90;;;;;;4992464;28;20094;-87
2022/06/24 01:41:28;;;;;;;4.78;3.30;;;18.70;99.90;;;;;;4976507;28;20038;-87
2022/06/24 01:43:54;;;;;;;4.68;3.13;;;18.70;99.90;;;;;;4975785;28;20043;-87
2022/06/24 01:46:19;;;;;;;4.35;3.20;;;18.70;99.90;;;;;;4993079;28;20069;-87
2022/06/24 01:48:45;;;;;;;4.18;3.50;;;18.70;99.90;;;;;;4976201;28;20066;-89
2022/06/24 01:51:12;;;;;;;3.80;3.50;;;18.70;99.90;;;;;;4993098;28;20061;-87
2022/06/24 01:53:37;;;;;;;4.10;2.83;;;18.60;99.90;;;;;;4975135;28;20054;-89
2022/06/24 01:56:03;;;;;;;5.45;3.58;;;18.60;99.90;;;;;;4991662;28;20552;-88
2022/06/24 01:58:29;;;;;;;3.65;3.13;;;18.60;99.90;;;;;;4975326;28;20058;-88
2022/06/24 02:00:55;;;;;;;3.92;2.92;;;18.60;99.90;;;;;;4991547;28;20062;-89
2022/06/24 02:03:20;;;;;;;3.78;3.47;;;18.50;99.90;;;;;;4991997;28;20124;-91
2022/06/24 02:05:49;;;;;;;3.63;3.22;;;18.50;99.90;;;;;;4992888;28;20042;-89
2022/06/24 02:08:15;;;;;;;3.92;3.35;;;18.40;99.90;;;;;;4992232;28;20053;-86
2022/06/24 02:13:27;;;;;;;4.10;3.30;;;18.40;99.90;;;;;;4977967;28;20399;-91
2022/06/24 02:15:54;;;;;;;4.45;3.08;;;18.30;99.90;;;;;;4975497;28;20050;-89
2022/06/24 02:18:20;;;;;;;5.53;3.40;;;18.30;99.90;;;;;;4976309;28;20407;-88
2022/06/24 02:20:46;;;;;;;4.00;3.60;;;18.30;99.90;;;;;;4993129;28;20054;-90
2022/06/24 02:23:11;;;;;;;3.92;3.63;;;18.20;99.90;;;;;;4976305;28;20069;-89
2022/06/24 02:25:37;;;;;;;4.07;3.35;;;18.10;99.90;;;;;;4991469;28;20090;-89
2022/06/24 02:28:03;;;;;;;5.00;3.55;;;18.10;99.90;;;;;;4992289;28;20084;-89
2022/06/24 02:30:29;;;;;;;7.10;3.90;;;18.10;99.90;;;;;;4976448;28;20113;-88
2022/06/24 02:32:55;;;;;;;3.53;3.20;;;18.00;99.90;;;;;;4975723;28;20050;-88
2022/06/24 02:35:20;;;;;;;5.15;3.65;;;18.00;99.90;;;;;;4993375;28;20133;-88
2022/06/24 02:37:46;;;;;;;5.70;3.80;;;18.00;99.90;;;;;;4992669;28;20050;-88
2022/06/24 02:42:56;;;;;;;;;;;17.80;99.90;;;;;;4993826;28;20054;-88
2022/06/24 02:45:22;;;;;;;7.65;4.15;;;17.80;99.90;;;;;;4978773;28;19925;-89
2022/06/24 02:47:48;;;;;;;4.00;3.70;;;17.90;99.90;;;;;;4976974;28;20117;-88
2022/06/24 02:50:13;;;;;;;5.40;4.28;;;17.80;99.90;;;;;;4976485;28;20490;-88
2022/06/24 02:52:42;;;;;;;4.70;3.92;;;17.80;99.90;;;;;;4992138;28;20092;-89
2022/06/24 02:55:08;;;;;;;5.22;4.25;;;17.70;99.90;;;;;;4992015;28;20077;-88
2022/06/24 02:57:33;;;;;;;6.47;4.72;;;17.70;99.90;;;;;;4991846;28;20188;-88
2022/06/24 02:59:59;;;;;;;4.38;3.97;;;17.80;99.90;;;;;;4991726;28;20137;-89
2022/06/24 03:02:25;;;;;;;5.97;4.65;;;17.80;99.90;;;;;;4991149;28;20046;-89
2022/06/24 03:04:51;;;;;;;6.90;4.28;;;17.90;99.90;;;;;;4974618;28;20058;-88
2022/06/24 03:07:16;;;;;;;6.18;4.50;;;18.00;99.90;;;;;;4975368;28;20046;-88
2022/06/24 03:09:42;;;;;;;11.05;4.88;;;18.10;99.90;;;;;;4991398;28;20069;-89
2022/06/24 03:12:08;;;;;;;6.00;4.53;;;18.20;99.90;;;;;;4991773;28;20502;-88
2022/06/24 03:14:34;;;;;;;6.88;5.03;;;18.30;99.90;;;;;;4992335;28;20069;-87
2022/06/24 03:16:59;;;;;;;6.20;4.90;;;18.30;99.90;;;;;;4992979;28;20050;-88
2022/06/24 03:19:25;;;;;;;8.23;6.38;;;18.30;99.90;;;;;;4992598;28;20050;-89
2022/06/24 03:21:50;;;;;;;9.98;5.38;;;18.40;99.90;;;;;;4990828;28;20050;-89
2022/06/24 03:24:16;;;;;;;9.07;5.70;;;18.50;99.90;;;;;;4991504;28;20053;-87
2022/06/24 03:26:42;;;;;;;7.00;5.10;;;18.50;99.90;;;;;;4975333;28;20062;-90
2022/06/24 03:29:07;;;;;;;5.97;5.10;;;18.50;99.90;;;;;;4990981;28;20486;-89
2022/06/24 03:31:33;;;;;;;6.32;5.35;;;18.60;99.90;;;;;;4975366;28;20438;-89
2022/06/24 03:33:59;;;;;;;6.85;4.72;;;18.60;99.90;;;;;;4991185;28;20089;-89
2022/06/24 03:36:25;;;;;;;6.38;5.10;;;18.60;99.90;;;;;;4992074;28;20472;-87
2022/06/24 03:38:51;;;;;;;6.30;5.10;;;18.60;99.90;;;;;;4990515;28;20569;-89
2022/06/24 03:41:16;;;;;;;5.90;5.40;;;18.80;99.90;;;;;;4992299;28;20137;-88
2022/06/24 03:43:42;;;;;;;6.40;5.30;;;18.80;99.90;;;;;;4974962;28;20137;-88
2022/06/24 03:46:08;;;;;;;9.38;4.95;;;18.90;99.90;;;;;;4974597;28;20081;-88
2022/06/24 03:48:33;;;;;;;7.28;5.70;;;18.90;99.90;;;;;;4992111;28;20050;-88
2022/06/24 03:50:59;;;;;;;10.00;5.60;;;18.90;99.90;;;;;;4974216;28;20072;-88
2022/06/24 03:53:24;;;;;;;6.97;5.57;;;19.00;99.90;;;;;;4992162;28;20050;-89
2022/06/24 03:55:50;;;;;;;7.60;5.63;;;19.10;99.90;;;;;;4990809;28;20077;-88
2022/06/24 03:58:17;;;;;;;7.45;4.93;;;19.10;99.90;;;;;;4974656;28;20050;-89
2022/06/24 04:00:43;;;;;;;6.60;4.35;;;19.10;99.90;;;;;;4990618;28;20050;-88
2022/06/24 04:03:08;;;;;;;6.10;4.57;;;19.20;99.90;;;;;;4990596;28;20403;-88
2022/06/24 04:05:34;;;;;;;7.50;4.28;;;19.20;99.90;;;;;;4990888;28;20054;-88
2022/06/24 04:08:00;;;;;;;6.75;5.30;;;19.30;99.90;;;;;;4991862;28;20520;-88
2022/06/24 04:10:28;;;;;;;10.57;5.63;;;19.50;99.90;;;;;;4990539;28;20145;-89
2022/06/24 04:12:54;;;;;;;6.22;4.95;;;19.60;99.90;;;;;;4990418;28;20154;-90
2022/06/24 04:15:19;;;;;;;6.50;5.30;;;19.70;99.90;;;;;;4975200;28;20129;-90
2022/06/24 04:17:46;;;;;;;7.88;5.38;;;19.80;99.90;;;;;;4979090;28;20553;-88
2022/06/24 04:20:13;;;;;;;8.50;5.78;;;19.80;99.90;;;;;;4962042;28;20101;-88
2022/06/24 04:22:39;;;;;;;7.40;5.35;;;19.80;99.90;;;;;;4994757;28;20089;-88
2022/06/24 04:25:05;;;;;;;5.20;4.70;;;19.90;99.90;;;;;;4995542;28;20089;-89
2022/06/24 04:27:30;;;;;;;10.00;4.97;;;20.00;99.90;;;;;;4993660;28;20507;-88
2022/06/24 04:30:04;;;;;;;5.05;4.57;;;20.00;99.90;;;;;;4978629;28;20138;-88
2022/06/24 04:32:29;;;;;;;8.63;4.53;;;20.10;99.90;;;;;;4995237;28;20100;-89
2022/06/24 04:34:55;;;;;;;8.55;4.15;;;20.30;99.90;;;;;;4993701;28;20503;-90
2022/06/24 04:37:21;;;;;;;6.55;4.20;;;20.40;99.90;;;;;;4995002;28;20050;-88
2022/06/24 04:39:47;;;;;;;8.57;4.22;;;20.50;99.90;;;;;;4977651;28;20058;-89
2022/06/24 04:42:12;;;;;;;6.00;4.10;;;20.70;99.90;;;;;;4977957;28;20108;-88
2022/06/24 04:44:38;;;;;;;6.45;3.90;;;21.10;99.90;;;;;;4993670;28;20486;-88
2022/06/24 04:47:04;;;;;;;5.25;4.10;;;21.30;99.90;;;;;;4994200;28;20457;-88
2022/06/24 04:49:30;;;;;;;4.80;3.67;;;21.60;99.90;;;;;;4993498;28;20380;-89
2022/06/24 04:51:55;;;;;;;5.15;3.65;;;21.70;99.90;;;;;;4994653;28;20146;-89
2022/06/24 04:54:21;;;;;;;4.22;3.28;;;21.70;99.90;;;;;;4994746;28;20049;-90
2022/06/24 04:56:47;;;;;;;5.85;4.00;;;21.50;99.90;;;;;;4982794;28;20054;-88
2022/06/24 04:59:12;;;;;;;6.25;3.83;;;21.60;99.90;;;;;;4996049;28;20046;-89
2022/06/24 05:01:38;;;;;;;4.80;3.42;;;21.80;99.90;;;;;;4993424;28;20127;-86
2022/06/24 05:04:04;;;;;;;5.88;3.70;;;21.70;99.90;;;;;;4995778;28;20080;-87
2022/06/24 05:06:30;;;;;;;5.13;3.53;;;21.70;99.90;;;;;;4980962;28;20049;-86
2022/06/24 05:08:55;;;;;;;6.35;3.47;;;21.90;99.90;;;;;;5001234;28;20066;-91
2022/06/24 05:11:21;;;;;;;3.55;3.22;;;22.10;99.90;;;;;;4984045;28;20061;-87
2022/06/24 05:13:47;;;;;;;6.55;3.92;;;22.10;99.90;;;;;;4969287;28;20046;-87
2022/06/24 05:16:12;;;;;;;5.00;4.53;;;22.50;99.90;;;;;;4997584;28;20049;-87
2022/06/24 05:18:38;;;;;;;5.90;4.07;;;23.00;99.90;;;;;;4995402;28;20101;-88
2022/06/24 05:21:04;;;;;;;9.70;5.63;;;23.30;99.90;;;;;;4962759;28;20050;-87
2022/06/24 05:23:29;;;;;;;7.78;6.07;;;23.60;99.90;;;;;;4994961;28;20042;-87
2022/06/24 05:25:55;;;;;;;8.57;6.68;;;23.80;99.90;;;;;;4994506;28;20050;-87
2022/06/24 05:28:28;;;;;;;7.97;7.18;;;24.10;99.90;;;;;;4962774;28;20054;-88
2022/06/24 05:30:57;;;;;;;9.55;7.90;;;24.20;99.90;;;;;;4994326;28;20058;-90
2022/06/24 05:33:23;;;;;;;9.25;7.57;;;24.20;99.90;;;;;;4995070;28;20089;-88
2022/06/24 05:35:53;;;;;;;9.57;8.13;;;24.00;99.90;;;;;;4978950;28;20090;-87
2022/06/24 05:38:23;;;;;;;9.13;7.95;;;23.50;99.90;;;;;;4994563;28;20108;-90
2022/06/24 05:40:52;;;;;;;11.15;7.80;;;23.20;99.90;;;;;;4977588;28;20116;-87
2022/06/24 05:43:18;;;;;;;10.13;9.13;;;22.70;99.90;;;;;;4977924;28;20129;-87
2022/06/24 05:45:45;;;;;;;14.18;10.15;;;22.60;99.90;;;;;;4995746;28;20053;-86
2022/06/24 05:48:10;;;;;;;12.63;9.40;;;22.30;99.90;;;;;;4978127;28;20057;-86
2022/06/24 05:50:39;;;;;;;21.45;11.30;;;21.90;99.90;;;;;;4976438;28;20046;-87
2022/06/24 05:55:49;;;;;;;16.40;10.52;;;21.70;99.90;;;;;;4964948;28;20054;-90
2022/06/24 05:58:16;;;;;;;16.08;10.55;;;21.50;99.90;;;;;;4992635;28;20056;-89
2022/06/24 06:00:42;;;;;;;24.98;14.05;;;21.50;99.90;;;;;;4993473;28;20050;-83
2022/06/24 06:03:07;;;;;;;21.52;14.60;;;21.10;99.90;;;;;;4993744;28;20200;-83
2022/06/24 06:05:33;;;;;;;18.50;15.20;;;20.80;99.90;;;;;;4993077;28;20538;-83
2022/06/24 06:07:59;;;;;;;17.55;15.02;;;20.50;99.90;;;;;;4993237;28;20372;-85
2022/06/24 06:10:24;;;;;;;19.98;17.42;;;20.40;99.90;;;;;;4993510;28;20042;-83
2022/06/24 06:12:50;;;;;;;22.90;17.10;;;20.20;99.90;;;;;;4993881;28;20045;-84
2022/06/24 06:15:16;;;;;;;28.35;18.80;;;20.30;99.90;;;;;;4975476;28;20057;-84
2022/06/24 06:17:41;;;;;;;24.38;18.85;;;20.30;99.90;;;;;;4976739;28;20054;-84
2022/06/24 06:20:07;;;;;;;35.20;22.48;;;20.30;99.90;;;;;;4993712;28;20088;-85
2022/06/24 06:22:33;;;;;;;30.08;22.38;;;20.40;99.90;;;;;;4991778;28;20132;-84
2022/06/24 06:24:59;;;;;;;28.92;21.70;;;20.40;99.90;;;;;;4991992;28;20129;-85
2022/06/24 06:27:24;;;;;;;25.17;21.10;;;20.30;99.90;;;;;;4991342;28;20093;-85
2022/06/24 06:29:50;;;;;;;27.67;21.58;;;20.30;99.90;;;;;;4991418;28;20062;-84
2022/06/24 06:32:16;;;;;;;30.55;24.13;;;20.30;99.90;;;;;;4991444;28;20042;-85
2022/06/24 06:34:41;;;;;;;21.92;19.02;;;20.40;99.90;;;;;;4993712;28;20041;-85
2022/06/24 06:37:07;;;;;;;25.45;20.50;;;20.40;99.90;;;;;;4992573;28;20046;-84
2022/06/24 06:39:33;;;;;;;26.20;23.15;;;20.50;99.90;;;;;;4992186;28;20057;-86
2022/06/24 06:41:59;;;;;;;26.08;22.67;;;20.60;99.90;;;;;;4991855;28;20050;-84
2022/06/24 06:44:24;;;;;;;28.88;20.98;;;20.80;99.90;;;;;;4992823;28;20072;-86
2022/06/24 06:46:50;;;;;;;20.52;17.75;;;20.80;99.90;;;;;;4993079;28;20057;-85
2022/06/24 06:49:16;;;;;;;22.25;19.17;;;20.70;99.90;;;;;;4992495;28;20050;-85
2022/06/24 06:51:41;;;;;;;26.65;22.98;;;20.80;99.90;;;;;;4992068;28;20463;-89
2022/06/24 06:54:07;;;;;;;29.00;23.35;;;20.70;99.90;;;;;;4992050;28;20042;-95
2022/06/24 06:56:33;;;;;;;29.98;21.27;;;20.60;99.90;;;;;;4975135;28;20085;-86
2022/06/24 06:58:58;;;;;;;31.48;22.02;;;20.50;99.90;;;;;;4992612;28;20046;-84
2022/06/24 07:01:24;;;;;;;27.20;22.55;;;20.50;99.90;;;;;;4990822;28;20053;-84
2022/06/24 07:03:50;;;;;;;28.42;23.42;;;20.50;99.90;;;;;;4990406;28;20101;-85
2022/06/24 07:06:15;;;;;;;31.30;22.65;;;20.50;99.90;;;;;;4992456;28;20050;-84
2022/06/24 07:08:41;;;;;;;21.75;18.27;;;20.40;99.90;;;;;;4992590;28;20047;-84
2022/06/24 07:11:07;;;;;;;26.08;20.50;;;20.40;99.90;;;;;;4992423;28;20072;-85
2022/06/24 07:13:32;;;;;;;25.35;21.55;;;20.40;99.90;;;;;;4991050;28;20042;-84
2022/06/24 07:15:58;;;;;;;22.90;19.17;;;20.30;99.90;;;;;;4990695;28;20043;-84
2022/06/24 07:18:24;;;;;;;21.83;19.52;;;20.30;99.90;;;;;;4990309;28;20053;-84
2022/06/24 07:20:49;;;;;;;26.48;21.58;;;20.30;99.90;;;;;;4991742;28;20053;-84
2022/06/24 07:23:15;;;;;;;18.42;16.20;;;20.20;99.90;;;;;;4992940;28;20061;-83
2022/06/24 07:25:41;;;;;;;16.80;14.90;;;20.30;99.90;;;;;;4992593;28;20038;-85
2022/06/24 07:28:06;;;;;;;15.82;14.15;;;20.20;99.90;;;;;;4990193;28;20089;-85
2022/06/24 07:30:32;;;;;;;16.35;13.38;;;20.30;99.90;;;;;;4958176;28;20133;-85
2022/06/24 07:32:58;;;;;;;14.43;12.77;;;20.20;99.90;;;;;;4991726;28;20468;-85
2022/06/24 07:35:24;;;;;;;15.02;13.40;;;20.20;99.90;;;;;;4990106;28;20431;-84
2022/06/24 07:37:49;;;;;;;15.85;13.10;;;20.20;99.90;;;;;;4974202;28;20490;-85
2022/06/24 07:40:15;;;;;;;18.27;13.35;;;20.20;99.90;;;;;;4989996;28;20046;-84
2022/06/24 07:42:42;;;;;;;15.15;13.55;;;20.20;99.90;;;;;;4990480;28;20042;-87
2022/06/24 07:45:09;;;;;;;16.88;14.60;;;20.20;99.90;;;;;;4990109;28;20479;-86
2022/06/24 07:47:35;;;;;;;16.58;13.80;;;20.20;99.90;;;;;;4974105;28;20054;-84
2022/06/24 07:50:02;;;;;;;15.35;12.20;;;20.30;99.90;;;;;;4990063;28;20529;-84
2022/06/24 07:52:28;;;;;;;16.75;14.98;;;20.30;99.90;;;;;;4977498;28;20054;-81
2022/06/24 07:56:56;;;;;;;16.08;13.60;;;20.30;99.90;;;;;;4994582;28;20502;-82
2022/06/24 07:57:39;;;;;;;19.55;16.05;;;20.30;99.90;;;;;;4994540;28;20050;-82
2022/06/24 08:00:05;;;;;;;18.27;16.42;;;20.30;99.90;;;;;;4977601;28;20112;-84
2022/06/24 08:02:31;;;;;;;17.33;15.50;;;20.30;99.90;;;;;;4961329;28;20072;-88
2022/06/24 08:04:57;;;;;;;17.38;15.18;;;20.30;99.90;;;;;;4995489;28;20463;-84
2022/06/24 08:07:22;;;;;;;16.95;14.10;;;20.40;99.90;;;;;;4977439;28;20173;-85
2022/06/24 08:09:48;;;;;;;16.58;14.07;;;20.40;99.90;;;;;;4993572;28;20184;-83
2022/06/24 08:12:14;;;;;;;16.33;13.70;;;20.50;99.90;;;;;;4994884;28;20053;-83
2022/06/24 08:14:39;;;;;;;14.02;12.73;;;20.50;99.90;;;;;;4992921;28;20050;-84
2022/06/24 08:17:05;;;;;;;15.18;13.63;;;20.50;99.90;;;;;;4962110;28;20065;-84
2022/06/24 08:19:30;;;;;;;13.93;12.05;;;20.50;99.90;;;;;;4993524;28;20038;-84
2022/06/24 08:21:56;;;;;;;15.38;13.68;;;20.50;99.90;;;;;;4996788;28;20391;-84
2022/06/24 08:24:22;;;;;;;12.93;11.65;;;20.60;99.90;;;;;;4977843;28;20385;-86
2022/06/24 08:26:47;;;;;;;12.70;11.40;;;20.70;99.90;;;;;;4961580;28;20054;-88
2022/06/24 08:29:19;;;;;;;13.85;12.13;;;20.80;99.90;;;;;;4962049;28;20062;-89
2022/06/24 08:31:47;;;;;;;13.35;12.13;;;20.90;99.90;;;;;;4975942;28;20042;-89
2022/06/24 08:34:18;;;;;;;10.75;9.75;;;21.20;99.90;;;;;;4961224;28;20052;-89
2022/06/24 08:36:43;;;;;;;9.93;9.02;;;21.30;99.90;;;;;;4976708;28;20069;-90
2022/06/24 08:39:09;;;;;;;9.82;8.93;;;21.50;99.90;;;;;;4967236;28;20050;-87
2022/06/24 08:41:38;;;;;;;9.27;8.30;;;21.50;99.90;;;;;;4977812;28;20064;-87
2022/06/24 08:44:09;;;;;;;10.55;8.65;;;21.40;99.90;;;;;;4978353;28;20061;-86
2022/06/24 08:46:34;;;;;;;8.80;7.90;;;20.40;99.90;;;;;;4976787;28;20475;-85
2022/06/24 08:49:00;;;;;;;9.60;8.65;;;21.30;99.90;;;;;;4962690;28;20061;-85
2022/06/24 08:51:27;;;;;;;9.40;8.68;;;21.20;99.90;;;;;;4963364;28;20045;-86
2022/06/24 08:53:56;;;;;;;10.20;9.20;;;21.00;99.90;;;;;;4995032;28;20148;-86
2022/06/24 08:56:24;;;;;;;18.27;9.00;;;21.00;99.90;;;;;;4978855;28;20058;-92
2022/06/24 08:58:52;;;;;;;13.40;11.15;;;21.00;99.90;;;;;;4991782;28;20394;-85
2022/06/24 09:01:18;;;;;;;10.70;9.63;;;20.70;99.90;;;;;;4949656;28;20047;-87
2022/06/24 09:03:44;;;;;;;11.80;10.48;;;20.70;99.90;;;;;;4995056;28;20052;-88
2022/06/24 09:06:14;;;;;;;11.70;10.60;;;20.80;99.90;;;;;;4960254;28;20050;-88
2022/06/24 09:08:40;;;;;;;12.57;10.52;;;20.70;99.90;;;;;;4961411;28;20054;-88
2022/06/24 09:11:06;;;;;;;12.10;11.00;;;20.70;99.90;;;;;;4979139;28;20134;-86
2022/06/24 09:13:49;;;;;;;11.23;10.23;;;19.50;99.90;;;;;;4963954;28;20486;-85
2022/06/24 09:16:17;;;;;;;10.90;9.77;;;20.10;99.90;;;;;;4964568;28;20053;-85
2022/06/24 09:18:50;;;;;;;9.93;9.07;;;21.00;99.90;;;;;;4995623;28;20494;-85
2022/06/24 09:21:39;;;;;;;11.05;10.02;;;21.00;99.90;;;;;;4995668;28;20046;-85
2022/06/24 09:24:05;;;;;;;10.23;9.32;;;20.90;99.90;;;;;;4962526;28;20501;-85
2022/06/24 09:26:50;;;;;;;11.63;10.20;;;20.90;99.90;;;;;;4978058;28;20046;-86
2022/06/24 09:29:16;;;;;;;10.40;9.40;;;20.90;99.90;;;;;;4975253;28;20062;-86
2022/06/24 09:31:42;;;;;;;11.98;10.63;;;21.00;99.90;;;;;;4999988;28;20439;-86
2022/06/24 09:34:16;;;;;;;10.18;9.27;;;21.10;99.90;;;;;;4987563;28;20042;-87
2022/06/24 09:36:46;;;;;;;8.82;7.97;;;21.20;99.90;;;;;;5007177;28;20046;-88
2022/06/24 09:39:15;;;;;;;9.80;9.00;;;21.30;99.90;;;;;;4978697;28;20133;-87
2022/06/24 09:41:42;;;;;;;10.70;9.55;;;21.60;99.90;;;;;;4962910;28;20498;-88
2022/06/24 09:44:09;;;;;;;10.35;9.38;;;21.70;99.90;;;;;;4993403;28;20054;-83
2022/06/24 09:46:35;;;;;;;9.60;8.68;;;21.90;99.90;;;;;;4992141;28;20553;-84
2022/06/24 09:49:05;;;;;;;10.38;9.35;;;21.80;99.90;;;;;;5008452;28;20058;-86
2022/06/24 09:51:31;;;;;;;9.60;8.52;;;21.70;99.90;;;;;;4991497;28;20451;-84
2022/06/24 09:53:56;;;;;;;9.38;8.45;;;21.60;99.90;;;;;;4996846;28;20078;-88
2022/06/24 09:56:24;;;;;;;8.68;7.95;;;21.60;99.90;;;;;;4994628;28;20045;-89
2022/06/24 10:01:55;;;;;;;8.95;8.15;;;21.10;99.90;;;;;;4986205;28;20506;-87
2022/06/24 10:04:21;;;;;;;9.25;8.32;;;21.00;99.90;;;;;;4960838;28;20049;-88
2022/06/24 10:06:48;;;;;;;18.77;10.77;;;20.80;99.90;;;;;;5010174;28;20057;-86
2022/06/24 10:09:14;;;;;;;31.83;12.60;;;20.70;99.90;;;;;;4993838;28;20054;-88
2022/06/24 10:11:50;;;;;;;23.23;12.20;;;20.60;99.90;;;;;;4994488;28;20046;-90
2022/06/24 10:14:16;;;;;;;27.02;9.95;;;20.20;99.90;;;;;;4975951;28;20058;-86
2022/06/24 10:16:42;;;;;;;49.50;12.55;;;19.70;99.90;;;;;;4981284;28;20045;-86
2022/06/24 10:19:09;;;;;;;12.25;6.30;;;19.30;99.90;;;;;;4980327;28;20402;-85
2022/06/24 10:21:36;;;;;;;60.10;10.57;;;18.90;99.90;;;;;;4964065;28;20057;-85
2022/06/24 10:24:16;;;;;;;21.35;7.60;;;18.80;99.90;;;;;;4974327;28;20081;-86
2022/06/24 10:26:46;;;;;;;16.95;7.97;;;18.70;99.90;;;;;;4975332;28;20058;-87
2022/06/24 10:29:23;;;;;;;15.02;9.30;;;18.60;99.90;;;;;;4975711;28;20054;-87
2022/06/24 10:31:49;;;;;;;12.57;10.25;;;18.50;99.90;;;;;;4989791;28;20073;-89
2022/06/24 10:34:28;;;;;;;14.95;11.30;;;18.50;99.90;;;;;;4992740;28;20050;-84
2022/06/24 10:36:58;;;;;;;16.67;12.38;;;18.40;99.90;;;;;;4993083;28;20085;-83
2022/06/24 10:39:26;;;;;;;19.90;12.35;;;18.40;99.90;;;;;;4982819;28;20054;-91
2022/06/24 10:42:03;;;;;;;15.25;12.02;;;18.40;99.90;;;;;;4959183;28;20733;-86
2022/06/24 10:44:40;;;;;;;17.17;12.90;;;18.40;99.90;;;;;;4974791;28;20050;-88
2022/06/24 10:47:11;;;;;;;19.45;13.85;;;18.30;99.90;;;;;;4974940;28;20414;-88
2022/06/24 10:49:55;;;;;;;20.65;14.48;;;18.40;99.90;;;;;;5009469;28;20104;-90
2022/06/24 10:52:33;;;;;;;21.77;15.07;;;18.40;99.90;;;;;;5008894;28;20125;-89
2022/06/24 10:55:20;;;;;;;16.05;13.32;;;18.40;99.90;;;;;;4991573;28;20042;-89
2022/06/24 10:57:50;;;;;;;20.60;13.50;;;18.40;99.90;;;;;;4989908;28;20506;-89
2022/06/24 11:00:17;;;;;;;13.10;10.20;;;18.40;99.90;;;;;;4959539;28;20379;-88
2022/06/24 11:02:46;;;;;;;8.95;8.07;;;18.30;99.90;;;;;;4960749;28;20515;-88
2022/06/24 11:05:25;;;;;;;10.13;8.60;;;18.20;99.90;;;;;;4964861;28;20046;-89
2022/06/24 11:07:51;;;;;;;7.13;6.20;;;18.10;99.90;;;;;;4959956;28;20056;-90
2022/06/24 11:10:41;;;;;;;7.90;6.15;;;18.00;99.90;;;;;;4963543;28;20121;-89
2022/06/24 11:13:06;;;;;;;6.72;6.05;;;17.90;99.90;;;;;;4973583;28;20054;-90
2022/06/24 11:15:40;;;;;;;7.85;6.88;;;17.80;99.90;;;;;;4958571;28;20371;-88
2022/06/24 11:18:11;;;;;;;6.13;5.57;;;17.80;99.90;;;;;;4975269;28;20042;-89
2022/06/24 11:20:38;;;;;;;7.20;6.32;;;17.70;99.90;;;;;;4975527;28;20034;-90
2022/06/24 11:23:12;;;;;;;6.13;5.55;;;17.70;99.90;;;;;;4959006;28;20062;-87
2022/06/24 11:25:45;;;;;;;6.40;5.80;;;17.60;99.90;;;;;;4975098;28;20470;-83
2022/06/24 11:28:24;;;;;;;6.03;5.22;;;17.60;99.90;;;;;;4978956;28;20132;-86
2022/06/24 11:30:50;;;;;;;7.50;5.13;;;17.60;99.90;;;;;;4994148;28;20031;-86
2022/06/24 11:33:16;;;;;;;6.55;5.95;;;17.50;99.90;;;;;;5008081;28;20056;-85
2022/06/24 11:35:42;;;;;;;7.20;5.55;;;17.60;99.90;;;;;;4978098;28;20050;-88
2022/06/24 11:38:08;;;;;;;8.60;6.63;;;17.60;99.90;;;;;;4994863;28;20046;-85
2022/06/24 11:40:34;;;;;;;7.75;5.45;;;17.60;99.90;;;;;;4978393;28;20116;-85
2022/06/24 11:43:04;;;;;;;6.22;5.57;;;17.70;99.90;;;;;;4978336;28;20054;-84
2022/06/24 11:45:44;;;;;;;6.35;5.75;;;17.70;99.90;;;;;;4994345;28;20522;-88
2022/06/24 11:48:11;;;;;;;8.30;5.60;;;17.80;99.90;;;;;;4962906;28;20143;-86
2022/06/24 11:50:37;;;;;;;8.52;5.45;;;17.90;99.90;;;;;;4963116;28;20104;-89
2022/06/24 11:53:04;;;;;;;8.05;5.80;;;18.00;99.90;;;;;;4962796;28;20054;-88
2022/06/24 11:55:31;;;;;;;6.07;5.32;;;18.10;99.90;;;;;;4979316;28;20035;-87
2022/06/24 11:57:59;;;;;;;9.07;5.70;;;18.10;99.90;;;;;;4962414;28;20141;-88
2022/06/24 12:00:33;;;;;;;12.05;5.78;;;18.10;99.90;;;;;;4978513;28;20479;-88
2022/06/24 12:02:58;;;;;;;;;;;18.20;99.90;;;;;;4963449;28;20129;-86
2022/06/24 12:05:26;;;;;;;5.88;5.25;;;18.40;99.90;;;;;;5010576;28;20024;-87
2022/06/24 12:07:52;;;;;;;7.82;5.93;;;18.40;99.90;;;;;;4978433;28;20054;-87
2022/06/24 12:10:18;;;;;;;6.72;6.03;;;18.50;99.90;;;;;;4994547;28;20478;-88
2022/06/24 12:12:57;;;;;;;8.18;5.80;;;18.50;99.90;;;;;;4995607;28;20553;-89
2022/06/24 12:15:24;;;;;;;6.30;5.63;;;18.60;99.90;;;;;;5011736;28;20453;-88
2022/06/24 12:17:52;;;;;;;5.97;5.32;;;18.60;99.90;;;;;;4994335;28;20054;-88
2022/06/24 12:20:23;;;;;;;7.22;6.32;;;18.50;99.90;;;;;;4962955;28;20046;-89
2022/06/24 12:23:15;;;;;;;7.25;6.00;;;18.50;99.90;;;;;;4995085;28;20057;-88
2022/06/24 12:25:41;;;;;;;7.13;6.43;;;18.70;99.90;;;;;;4994243;28;20053;-88
2022/06/24 12:28:19;;;;;;;7.30;6.40;;;18.60;99.90;;;;;;4995430;28;20141;-89
2022/06/24 12:31:08;;;;;;;6.93;6.18;;;18.80;99.90;;;;;;4979721;28;20081;-90
2022/06/24 12:33:36;;;;;;;7.88;7.07;;;18.90;99.90;;;;;;4979570;28;20054;-88
2022/06/24 12:36:15;;;;;;;8.07;6.78;;;19.10;99.90;;;;;;4979848;28;20054;-89
2022/06/24 12:39:05;;;;;;;6.47;5.97;;;19.40;99.90;;;;;;4980308;28;20124;-89
2022/06/24 12:41:41;;;;;;;7.03;6.30;;;19.60;99.90;;;;;;5004615;28;20050;-85
2022/06/24 12:44:07;;;;;;;7.75;6.47;;;19.70;99.90;;;;;;5005356;28;20046;-86
2022/06/24 12:46:33;;;;;;;8.02;6.28;;;19.80;99.90;;;;;;4989033;28;20049;-88
2022/06/24 12:51:46;;;;;;;8.25;7.55;;;20.10;99.90;;;;;;5005206;28;20050;-88
2022/06/24 12:54:13;;;;;;;9.80;8.80;;;20.40;99.90;;;;;;4994384;28;20055;-88
2022/06/24 12:56:39;;;;;;;11.63;10.43;;;20.30;99.90;;;;;;4994661;28;20497;-89
2022/06/24 12:59:05;;;;;;;12.55;11.38;;;20.40;99.90;;;;;;4993817;28;20084;-88